Terminal Aerodrome Forecast
Issued by NWS

Home | Current Version | Previous Version | Text Only | Print | Product List | Glossary Off
Versions: 1 2 3 4 5 6 7 8 9 10 11 12 13 14 15 16 17

584
FTUS41 KCLE 122340
TAFFDY
TAF
KFDY 122340Z 1300/1324 30018G28KT P6SM BKN060
      TEMPO 1300/1302 4SM -SHSN OVC035
     FM130900 30012KT P6SM SCT035
     FM131600 30014G22KT P6SM BKN035=

USA.gov is the U.S. government's official web portal to all federal, state and local government web resources and services.